Time,TemperatureF,DewpointF,PressureIn,WindDirection,WindDirectionDegrees,WindSpeedMPH,WindSpeedGustMPH,Humidity,HourlyPrecipIn,Conditions,Clouds,dailyrainin,SoftwareType,DateUTC
2013-05-30 00:05:00,65.6,62.6,29.64,SE,144,3.0,3.0,90,0.00,,,0.00,Wunderground v.1.15,2013-05-30 05:05:00,
2013-05-30 00:10:00,65.3,62.3,29.64,SE,140,3.0,3.0,90,0.00,,,0.00,Wunderground v.1.15,2013-05-30 05:10:00,
2013-05-30 00:20:00,65.0,62.3,29.63,East,87,3.0,3.0,91,0.00,,,0.00,Wunderground v.1.15,2013-05-30 05:20:00,
2013-05-30 00:25:00,64.9,62.2,29.64,SE,127,3.0,8.0,91,0.00,,,0.00,Wunderground v.1.15,2013-05-30 05:25:00,
2013-05-30 00:35:00,64.9,62.5,29.64,SE,144,4.0,7.0,92,0.00,,,0.00,Wunderground v.1.15,2013-05-30 05:35:00,
2013-05-30 00:45:00,65.0,62.6,29.63,ESE,120,5.0,8.0,92,0.00,,,0.00,Wunderground v.1.15,2013-05-30 05:45:00,
2013-05-30 00:55:00,64.6,62.5,29.62,ESE,122,5.0,8.0,93,0.00,,,0.00,Wunderground v.1.15,2013-05-30 05:55:00,
2013-05-30 01:05:00,64.5,62.7,29.62,SSE,147,5.0,11.0,94,0.00,,,0.00,Wunderground v.1.15,2013-05-30 06:05:00,
2013-05-30 01:15:00,64.5,62.7,29.63,ENE,66,5.0,7.0,94,0.00,,,0.00,Wunderground v.1.15,2013-05-30 06:15:00,
2013-05-30 01:20:00,64.5,62.7,29.62,ESE,119,6.0,6.0,94,0.00,,,0.00,Wunderground v.1.15,2013-05-30 06:20:00,
2013-05-30 01:30:00,64.5,62.7,29.62,SE,135,6.0,6.0,94,0.00,,,0.00,Wunderground v.1.15,2013-05-30 06:30:00,
2013-05-30 01:40:00,64.6,62.8,29.61,ESE,118,5.0,7.0,94,0.00,,,0.00,Wunderground v.1.15,2013-05-30 06:40:00,
2013-05-30 01:50:00,64.5,62.4,29.62,SE,129,5.0,5.0,93,0.00,,,0.00,Wunderground v.1.15,2013-05-30 06:50:00,
2013-05-30 02:00:00,64.4,62.6,29.61,SE,127,4.0,6.0,94,0.00,,,0.00,Wunderground v.1.15,2013-05-30 07:00:00,
2013-05-30 02:05:00,64.4,62.6,29.61,SE,128,4.0,6.0,94,0.00,,,0.00,Wunderground v.1.15,2013-05-30 07:05:00,
2013-05-30 02:15:00,64.4,62.6,29.61,SE,128,4.0,4.0,94,0.00,,,0.00,Wunderground v.1.15,2013-05-30 07:15:00,
2013-05-30 02:25:00,64.4,62.6,29.60,SE,131,5.0,5.0,94,0.00,,,0.00,Wunderground v.1.15,2013-05-30 07:25:00,
2013-05-30 02:35:00,64.4,62.6,29.60,SE,127,5.0,8.0,94,0.00,,,0.00,Wunderground v.1.15,2013-05-30 07:35:00,
2013-05-30 02:40:00,64.4,62.6,29.60,SE,131,5.0,6.0,94,0.00,,,0.00,Wunderground v.1.15,2013-05-30 07:40:00,
2013-05-30 02:50:00,64.4,62.6,29.59,SE,127,5.0,6.0,94,0.00,,,0.00,Wunderground v.1.15,2013-05-30 07:50:00,
2013-05-30 02:55:00,64.3,62.5,29.58,ESE,119,5.0,6.0,94,0.00,,,0.00,Wunderground v.1.15,2013-05-30 07:55:00,
2013-05-30 03:05:00,64.1,62.3,29.57,SE,144,6.0,6.0,94,0.00,,,0.00,Wunderground v.1.15,2013-05-30 08:05:00,
2013-05-30 03:15:00,64.1,62.3,29.58,SE,132,5.0,8.0,94,0.00,,,0.00,Wunderground v.1.15,2013-05-30 08:15:00,
2013-05-30 03:20:00,64.1,62.3,29.58,SE,127,4.0,4.0,94,0.00,,,0.00,Wunderground v.1.15,2013-05-30 08:20:00,
2013-05-30 03:30:00,64.1,62.3,29.57,ESE,118,4.0,4.0,94,0.00,,,0.00,Wunderground v.1.15,2013-05-30 08:30:00,
2013-05-30 03:40:00,64.2,62.1,29.56,SE,132,4.0,5.0,93,0.00,,,0.00,Wunderground v.1.15,2013-05-30 08:40:00,
2013-05-30 03:50:00,64.3,61.9,29.56,ESE,110,5.0,5.0,92,0.00,,,0.00,Wunderground v.1.15,2013-05-30 08:50:00,
2013-05-30 04:00:00,64.2,62.1,29.56,ESE,115,3.0,5.0,93,0.00,,,0.00,Wunderground v.1.15,2013-05-30 09:00:00,
2013-05-30 04:05:00,64.3,62.2,29.56,ESE,116,3.0,5.0,93,0.00,,,0.00,Wunderground v.1.15,2013-05-30 09:05:00,
2013-05-30 04:15:00,64.2,62.1,29.55,SE,127,4.0,6.0,93,0.00,,,0.00,Wunderground v.1.15,2013-05-30 09:15:00,
2013-05-30 04:25:00,64.4,62.3,29.55,ESE,115,4.0,4.0,93,0.00,,,0.00,Wunderground v.1.15,2013-05-30 09:25:00,
2013-05-30 04:35:00,64.9,62.5,29.55,SE,125,5.0,5.0,92,0.00,,,0.00,Wunderground v.1.15,2013-05-30 09:35:00,
2013-05-30 04:45:00,65.4,63.3,29.54,ESE,123,5.0,6.0,93,0.00,,,0.00,Wunderground v.1.15,2013-05-30 09:45:00,
2013-05-30 04:55:00,65.8,63.7,29.54,ESE,108,7.0,9.0,93,0.00,,,0.00,Wunderground v.1.15,2013-05-30 09:55:00,
2013-05-30 05:05:00,66.1,64.0,29.54,ESE,118,6.0,7.0,93,0.00,,,0.00,Wunderground v.1.15,2013-05-30 10:05:00,
2013-05-30 05:15:00,66.3,64.2,29.54,East,85,6.0,9.0,93,0.00,,,0.00,Wunderground v.1.15,2013-05-30 10:15:00,
2013-05-30 05:20:00,66.4,64.3,29.54,SE,129,6.0,9.0,93,0.00,,,0.00,Wunderground v.1.15,2013-05-30 10:20:00,
2013-05-30 05:30:00,66.5,64.4,29.54,SSW,198,6.0,6.0,93,0.00,,,0.00,Wunderground v.1.15,2013-05-30 10:30:00,
2013-05-30 05:40:00,66.7,64.6,29.54,ESE,122,5.0,5.0,93,0.00,,,0.00,Wunderground v.1.15,2013-05-30 10:40:00,
2013-05-30 05:50:00,66.9,64.5,29.53,ESE,120,5.0,5.0,92,0.00,,,0.00,Wunderground v.1.15,2013-05-30 10:50:00,
2013-05-30 06:00:00,66.6,64.5,29.52,SE,127,3.0,3.0,93,0.00,,,0.01,Wunderground v.1.15,2013-05-30 11:00:00,
2013-05-30 06:05:00,66.6,64.5,29.51,SE,130,3.0,3.0,93,0.00,,,0.01,Wunderground v.1.15,2013-05-30 11:05:00,
2013-05-30 06:15:00,66.7,64.6,29.51,SE,139,4.0,5.0,93,0.00,,,0.01,Wunderground v.1.15,2013-05-30 11:15:00,
2013-05-30 06:25:00,66.8,64.7,29.50,ESE,107,4.0,5.0,93,0.00,,,0.01,Wunderground v.1.15,2013-05-30 11:25:00,
2013-05-30 06:35:00,66.8,64.7,29.52,SSE,167,3.0,4.0,93,0.00,,,0.01,Wunderground v.1.15,2013-05-30 11:35:00,
2013-05-30 06:45:00,66.7,64.6,29.53,South,191,3.0,3.0,93,0.00,,,0.01,Wunderground v.1.15,2013-05-30 11:45:00,
2013-05-30 06:55:00,66.6,64.5,29.53,ESE,118,1.0,1.0,93,0.00,,,0.01,Wunderground v.1.15,2013-05-30 11:55:00,
2013-05-30 07:05:00,67.0,64.6,29.55,SSW,193,6.0,9.0,92,0.00,,,0.01,Wunderground v.1.15,2013-05-30 12:05:00,
2013-05-30 07:15:00,67.4,64.7,29.56,South,175,8.0,9.0,91,0.00,,,0.01,Wunderground v.1.15,2013-05-30 12:15:00,
2013-05-30 07:20:00,67.5,64.8,29.56,South,185,8.0,8.0,91,0.00,,,0.01,Wunderground v.1.15,2013-05-30 12:20:00,
2013-05-30 07:30:00,67.3,64.6,29.56,South,176,7.0,7.0,91,0.00,,,0.01,Wunderground v.1.15,2013-05-30 12:30:00,
2013-05-30 07:35:00,67.3,64.6,29.56,South,172,6.0,7.0,91,0.00,,,0.01,Wunderground v.1.15,2013-05-30 12:35:00,
2013-05-30 07:45:00,67.4,64.7,29.56,South,187,3.0,6.0,91,0.00,,,0.01,Wunderground v.1.15,2013-05-30 12:45:00,
2013-05-30 07:55:00,67.7,65.0,29.56,SSE,160,4.0,4.0,91,0.00,,,0.01,Wunderground v.1.15,2013-05-30 12:55:00,
2013-05-30 08:06:00,67.9,65.2,29.55,SE,134,2.0,3.0,91,0.00,,,0.01,Wunderground v.1.15,2013-05-30 13:06:00,
2013-05-30 08:15:00,67.9,65.2,29.55,South,183,3.0,6.0,91,0.00,,,0.01,Wunderground v.1.15,2013-05-30 13:15:00,
2013-05-30 08:20:00,67.8,65.1,29.56,South,177,4.0,11.0,91,0.00,,,0.01,Wunderground v.1.15,2013-05-30 13:20:00,
2013-05-30 08:30:00,67.8,64.8,29.56,South,172,4.0,4.0,90,0.00,,,0.01,Wunderground v.1.15,2013-05-30 13:30:00,
2013-05-30 08:40:00,67.7,64.3,29.56,ESE,114,5.0,5.0,89,0.00,,,0.01,Wunderground v.1.15,2013-05-30 13:40:00,
2013-05-30 08:50:00,67.0,64.0,29.56,South,179,10.0,10.0,90,0.00,,,0.01,Wunderground v.1.15,2013-05-30 13:50:00,
2013-05-30 09:00:00,66.1,63.7,29.57,South,176,11.0,11.0,92,0.00,,,0.02,Wunderground v.1.15,2013-05-30 14:00:00,
2013-05-30 09:05:00,65.9,63.8,29.57,SSW,196,11.0,11.0,93,0.00,,,0.02,Wunderground v.1.15,2013-05-30 14:05:00,
2013-05-30 09:15:00,65.5,63.7,29.57,South,170,9.0,14.0,94,0.05,,,0.03,Wunderground v.1.15,2013-05-30 14:15:00,
2013-05-30 09:20:00,65.4,63.9,29.57,South,191,7.0,7.0,95,0.05,,,0.03,Wunderground v.1.15,2013-05-30 14:20:00,
2013-05-30 09:25:00,65.6,64.1,29.57,WSW,256,6.0,7.0,95,0.04,,,0.03,Wunderground v.1.15,2013-05-30 14:25:00,
2013-05-30 09:35:00,66.4,64.6,29.57,South,187,6.0,8.0,94,0.00,,,0.03,Wunderground v.1.15,2013-05-30 14:35:00,
2013-05-30 09:40:00,67.2,65.4,29.57,South,188,5.0,5.0,94,0.00,,,0.03,Wunderground v.1.15,2013-05-30 14:40:00,
2013-05-30 09:45:00,68.2,66.1,29.57,South,187,3.0,12.0,93,0.00,,,0.03,Wunderground v.1.15,2013-05-30 14:45:00,
2013-05-30 09:55:00,68.3,64.9,29.57,South,185,7.0,11.0,89,0.00,,,0.03,Wunderground v.1.15,2013-05-30 14:55:00,
2013-05-30 10:05:00,68.1,64.7,29.58,South,184,7.0,16.0,89,0.00,,,0.03,Wunderground v.1.15,2013-05-30 15:05:00,
2013-05-30 10:15:00,68.0,64.0,29.57,SSE,168,9.0,9.0,87,0.00,,,0.03,Wunderground v.1.15,2013-05-30 15:15:00,
2013-05-30 10:20:00,68.0,63.7,29.57,South,180,8.0,12.0,86,0.00,,,0.03,Wunderground v.1.15,2013-05-30 15:20:00,
2013-05-30 10:30:00,68.4,64.0,29.57,SSW,206,10.0,10.0,86,0.00,,,0.03,Wunderground v.1.15,2013-05-30 15:30:00,
2013-05-30 10:40:00,69.3,64.6,29.57,SSE,162,7.0,7.0,85,0.00,,,0.03,Wunderground v.1.15,2013-05-30 15:40:00,
2013-05-30 10:50:00,70.1,64.0,29.57,South,180,8.0,8.0,81,0.00,,,0.03,Wunderground v.1.15,2013-05-30 15:50:00,
2013-05-30 11:00:00,71.1,64.3,29.57,South,181,11.0,11.0,79,0.00,,,0.03,Wunderground v.1.15,2013-05-30 16:00:00,
2013-05-30 11:05:00,71.1,63.5,29.56,South,178,11.0,11.0,77,0.00,,,0.03,Wunderground v.1.15,2013-05-30 16:05:00,
2013-05-30 11:15:00,71.7,64.1,29.56,South,179,10.0,17.0,77,0.00,,,0.03,Wunderground v.1.15,2013-05-30 16:15:00,
2013-05-30 11:20:00,72.2,64.2,29.56,SSW,200,8.0,8.0,76,0.00,,,0.03,Wunderground v.1.15,2013-05-30 16:20:00,
2013-05-30 11:30:00,71.9,63.9,29.56,SSE,149,8.0,11.0,76,0.00,,,0.03,Wunderground v.1.15,2013-05-30 16:30:00,
2013-05-30 11:40:00,71.9,64.3,29.56,South,189,8.0,8.0,77,0.00,,,0.03,Wunderground v.1.15,2013-05-30 16:40:00,
2013-05-30 11:50:00,71.4,63.8,29.57,ESE,114,7.0,7.0,77,0.00,,,0.03,Wunderground v.1.15,2013-05-30 16:50:00,
2013-05-30 12:00:00,70.9,63.7,29.57,SSE,162,6.0,7.0,78,0.00,,,0.03,Wunderground v.1.15,2013-05-30 17:00:00,
2013-05-30 12:05:00,70.5,63.3,29.57,SSE,152,7.0,7.0,78,0.00,,,0.03,Wunderground v.1.15,2013-05-30 17:05:00,
2013-05-30 12:15:00,70.1,63.3,29.57,South,180,6.0,8.0,79,0.00,,,0.03,Wunderground v.1.15,2013-05-30 17:15:00,
2013-05-30 12:20:00,69.8,63.3,29.57,SE,137,7.0,7.0,80,0.00,,,0.03,Wunderground v.1.15,2013-05-30 17:20:00,
2013-05-30 12:30:00,69.7,64.0,29.57,SSE,164,4.0,4.0,82,0.00,,,0.03,Wunderground v.1.15,2013-05-30 17:30:00,
2013-05-30 12:35:00,69.5,63.8,29.57,South,174,3.0,4.0,82,0.00,,,0.03,Wunderground v.1.15,2013-05-30 17:35:00,
2013-05-30 12:45:00,69.3,63.6,29.57,SE,131,2.0,3.0,82,0.00,,,0.03,Wunderground v.1.15,2013-05-30 17:45:00,
2013-05-30 12:55:00,69.5,64.1,29.57,SSE,147,3.0,3.0,83,0.00,,,0.03,Wunderground v.1.15,2013-05-30 17:55:00,
2013-05-30 13:00:00,69.8,64.1,29.57,SE,143,3.0,5.0,82,0.00,,,0.03,Wunderground v.1.15,2013-05-30 18:00:00,
2013-05-30 13:05:00,70.6,64.8,29.57,SSW,205,3.0,5.0,82,0.00,,,0.03,Wunderground v.1.15,2013-05-30 18:05:00,
2013-05-30 13:15:00,71.5,64.3,29.57,South,185,4.0,11.0,78,0.00,,,0.03,Wunderground v.1.15,2013-05-30 18:15:00,
2013-05-30 13:25:00,71.4,64.5,29.57,SE,143,5.0,8.0,79,0.00,,,0.03,Wunderground v.1.15,2013-05-30 18:25:00,
2013-05-30 13:35:00,71.3,64.1,29.57,SSE,147,4.0,4.0,78,0.00,,,0.03,Wunderground v.1.15,2013-05-30 18:35:00,
2013-05-30 13:40:00,71.5,64.3,29.56,ESE,118,4.0,7.0,78,0.00,,,0.03,Wunderground v.1.15,2013-05-30 18:40:00,
2013-05-30 13:50:00,72.6,65.0,29.56,South,189,4.0,4.0,77,0.00,,,0.03,Wunderground v.1.15,2013-05-30 18:50:00,
2013-05-30 14:00:00,73.3,64.5,29.56,ESE,118,5.0,5.0,74,0.00,,,0.03,Wunderground v.1.15,2013-05-30 19:00:00,
2013-05-30 14:05:00,73.8,64.6,29.56,ESE,114,5.0,5.0,73,0.00,,,0.03,Wunderground v.1.15,2013-05-30 19:05:00,
2013-05-30 14:15:00,73.5,64.3,29.56,SSW,193,4.0,14.0,73,0.00,,,0.03,Wunderground v.1.15,2013-05-30 19:15:00,
2013-05-30 14:20:00,73.1,64.3,29.55,ESE,107,4.0,4.0,74,0.00,,,0.03,Wunderground v.1.15,2013-05-30 19:20:00,
2013-05-30 14:30:00,73.5,64.3,29.55,South,178,4.0,4.0,73,0.00,,,0.03,Wunderground v.1.15,2013-05-30 19:30:00,
2013-05-30 14:40:00,74.2,63.8,29.54,SSE,153,5.0,5.0,70,0.00,,,0.03,Wunderground v.1.15,2013-05-30 19:40:00,
2013-05-30 14:50:00,74.7,63.9,29.54,SSW,211,4.0,4.0,69,0.00,,,0.03,Wunderground v.1.15,2013-05-30 19:50:00,
2013-05-30 15:00:00,73.7,62.9,29.54,South,177,10.0,11.0,69,0.00,,,0.03,Wunderground v.1.15,2013-05-30 20:00:00,
2013-05-30 15:05:00,73.3,63.3,29.54,SSE,152,10.0,11.0,71,0.00,,,0.03,Wunderground v.1.15,2013-05-30 20:05:00,
2013-05-30 15:15:00,73.1,63.9,29.54,SSE,154,6.0,8.0,73,0.00,,,0.03,Wunderground v.1.15,2013-05-30 20:15:00,
2013-05-30 15:20:00,72.6,63.1,29.54,South,186,6.0,13.0,72,0.00,,,0.03,Wunderground v.1.15,2013-05-30 20:20:00,
2013-05-30 15:30:00,72.9,64.1,29.53,SSW,192,5.0,5.0,74,0.00,,,0.03,Wunderground v.1.15,2013-05-30 20:30:00,
2013-05-30 15:40:00,73.5,64.3,29.53,South,179,4.0,7.0,73,0.00,,,0.03,Wunderground v.1.15,2013-05-30 20:40:00,
2013-05-30 15:50:00,74.0,64.4,29.53,ESE,113,7.0,7.0,72,0.00,,,0.03,Wunderground v.1.15,2013-05-30 20:50:00,
2013-05-30 15:55:00,74.0,63.6,29.53,SSW,195,5.0,7.0,70,0.00,,,0.03,Wunderground v.1.15,2013-05-30 20:55:00,
2013-05-30 16:05:00,73.3,63.3,29.52,South,174,4.0,5.0,71,0.00,,,0.03,Wunderground v.1.15,2013-05-30 21:05:00,
2013-05-30 16:15:00,73.9,63.1,29.52,SSW,197,4.0,7.0,69,0.00,,,0.03,Wunderground v.1.15,2013-05-30 21:15:00,
2013-05-30 16:20:00,74.3,63.1,29.52,South,172,4.0,8.0,68,0.00,,,0.03,Wunderground v.1.15,2013-05-30 21:20:00,
2013-05-30 16:30:00,73.9,62.7,29.52,South,185,5.0,5.0,68,0.00,,,0.03,Wunderground v.1.15,2013-05-30 21:30:00,
2013-05-30 16:40:00,73.6,61.1,29.52,SSW,194,3.0,4.0,65,0.00,,,0.03,Wunderground v.1.15,2013-05-30 21:40:00,
2013-05-30 16:50:00,72.4,61.7,29.52,SSE,165,6.0,6.0,69,0.00,,,0.03,Wunderground v.1.15,2013-05-30 21:50:00,
2013-05-30 17:00:00,68.3,61.2,29.53,SSW,201,11.0,11.0,78,0.00,,,0.04,Wunderground v.1.15,2013-05-30 22:00:00,
2013-05-30 17:05:00,65.9,61.6,29.52,SSW,201,11.0,11.0,86,0.11,,,0.05,Wunderground v.1.15,2013-05-30 22:05:00,
2013-05-30 17:15:00,64.8,62.7,29.52,South,185,8.0,9.0,93,0.11,,,0.09,Wunderground v.1.15,2013-05-30 22:15:00,
2013-05-30 17:25:00,65.1,63.6,29.52,South,172,5.0,6.0,95,0.11,,,0.12,Wunderground v.1.15,2013-05-30 22:25:00,
2013-05-30 17:35:00,65.7,64.5,29.52,South,186,2.0,4.0,96,0.04,,,0.12,Wunderground v.1.15,2013-05-30 22:35:00,
2013-05-30 17:40:00,65.8,64.3,29.52,SSW,200,1.0,2.0,95,0.00,,,0.12,Wunderground v.1.15,2013-05-30 22:40:00,
2013-05-30 17:50:00,66.2,64.7,29.52,South,169,3.0,3.0,95,0.00,,,0.12,Wunderground v.1.15,2013-05-30 22:50:00,
2013-05-30 18:00:00,66.8,65.0,29.52,SSE,152,4.0,4.0,94,0.00,,,0.12,Wunderground v.1.15,2013-05-30 23:00:00,
2013-05-30 18:05:00,67.0,64.9,29.52,SSE,156,3.0,4.0,93,0.00,,,0.12,Wunderground v.1.15,2013-05-30 23:05:00,
2013-05-30 18:15:00,67.2,64.5,29.51,South,185,3.0,8.0,91,0.00,,,0.12,Wunderground v.1.15,2013-05-30 23:15:00,
2013-05-30 18:20:00,67.5,64.8,29.51,South,177,3.0,3.0,91,0.00,,,0.12,Wunderground v.1.15,2013-05-30 23:20:00,
2013-05-30 18:30:00,67.7,64.7,29.51,SSW,206,2.0,2.0,90,0.00,,,0.12,Wunderground v.1.15,2013-05-30 23:30:00,
2013-05-30 18:35:00,67.8,64.8,29.50,SW,224,2.0,2.0,90,0.00,,,0.12,Wunderground v.1.15,2013-05-30 23:35:00,
2013-05-30 18:45:00,68.0,64.3,29.50,South,190,3.0,7.0,88,0.00,,,0.12,Wunderground v.1.15,2013-05-30 23:45:00,
2013-05-30 18:55:00,68.2,63.9,29.49,South,179,3.0,10.0,86,0.00,,,0.12,Wunderground v.1.15,2013-05-30 23:55:00,
2013-05-30 19:05:00,68.3,64.3,29.49,South,180,2.0,3.0,87,0.00,,,0.12,Wunderground v.1.15,2013-05-31 00:05:00,
2013-05-30 19:15:00,68.5,64.1,29.50,SSE,149,3.0,7.0,86,0.00,,,0.12,Wunderground v.1.15,2013-05-31 00:15:00,
2013-05-30 19:20:00,68.9,64.2,29.50,South,179,4.0,4.0,85,0.00,,,0.12,Wunderground v.1.15,2013-05-31 00:20:00,
2013-05-30 19:30:00,69.4,65.0,29.50,SSE,152,3.0,3.0,86,0.00,,,0.12,Wunderground v.1.15,2013-05-31 00:30:00,
2013-05-30 19:35:00,69.4,64.7,29.50,South,179,2.0,3.0,85,0.00,,,0.12,Wunderground v.1.15,2013-05-31 00:35:00,
2013-05-30 19:45:00,68.8,63.8,29.51,SE,134,3.0,3.0,84,0.00,,,0.12,Wunderground v.1.15,2013-05-31 00:45:00,
2013-05-30 19:55:00,68.4,63.7,29.51,SE,138,2.0,3.0,85,0.00,,,0.12,Wunderground v.1.15,2013-05-31 00:55:00,
2013-05-30 20:05:00,68.0,64.0,29.52,SSE,161,1.0,1.0,87,0.00,,,0.12,Wunderground v.1.15,2013-05-31 01:05:00,
2013-05-30 20:15:00,67.6,63.6,29.52,SSW,192,1.0,1.0,87,0.00,,,0.12,Wunderground v.1.15,2013-05-31 01:15:00,
2013-05-30 20:20:00,67.4,63.7,29.52,SSE,149,1.0,1.0,88,0.00,,,0.12,Wunderground v.1.15,2013-05-31 01:20:00,
2013-05-30 20:30:00,67.1,63.7,29.51,SSE,157,1.0,1.0,89,0.00,,,0.12,Wunderground v.1.15,2013-05-31 01:30:00,
2013-05-30 20:40:00,67.0,63.6,29.51,South,180,0.0,0.0,89,0.00,,,0.12,Wunderground v.1.15,2013-05-31 01:40:00,
2013-05-30 20:50:00,66.8,63.5,29.51,SSE,161,0.0,1.0,89,0.00,,,0.12,Wunderground v.1.15,2013-05-31 01:50:00,
2013-05-30 21:00:00,66.8,63.5,29.51,SE,143,0.0,0.0,89,0.00,,,0.12,Wunderground v.1.15,2013-05-31 02:00:00,
2013-05-30 21:05:00,66.8,63.8,29.51,SE,143,0.0,0.0,90,0.00,,,0.12,Wunderground v.1.15,2013-05-31 02:05:00,
2013-05-30 21:15:00,66.6,63.3,29.50,SE,139,0.0,2.0,89,0.00,,,0.12,Wunderground v.1.15,2013-05-31 02:15:00,
2013-05-30 21:25:00,66.5,63.2,29.51,SE,139,0.0,0.0,89,0.00,,,0.12,Wunderground v.1.15,2013-05-31 02:25:00,
2013-05-30 21:35:00,66.3,63.3,29.51,SSW,201,0.0,0.0,90,0.00,,,0.12,Wunderground v.1.15,2013-05-31 02:35:00,
2013-05-30 21:45:00,66.0,63.0,29.51,SE,141,0.0,0.0,90,0.00,,,0.12,Wunderground v.1.15,2013-05-31 02:45:00,
2013-05-30 21:55:00,65.9,62.9,29.52,SE,138,0.0,1.0,90,0.00,,,0.12,Wunderground v.1.15,2013-05-31 02:55:00,
2013-05-30 22:05:00,65.7,63.0,29.52,SE,140,1.0,1.0,91,0.00,,,0.12,Wunderground v.1.15,2013-05-31 03:05:00,
2013-05-30 22:15:00,65.4,62.7,29.52,SE,131,1.0,1.0,91,0.00,,,0.12,Wunderground v.1.15,2013-05-31 03:15:00,
2013-05-30 22:25:00,65.2,62.5,29.52,SE,134,1.0,1.0,91,0.00,,,0.12,Wunderground v.1.15,2013-05-31 03:25:00,
2013-05-30 22:35:00,64.9,62.5,29.53,SE,129,1.0,2.0,92,0.00,,,0.12,Wunderground v.1.15,2013-05-31 03:35:00,
2013-05-30 22:45:00,64.5,62.1,29.53,South,169,1.0,1.0,92,0.00,,,0.12,Wunderground v.1.15,2013-05-31 03:45:00,
2013-05-30 22:55:00,64.3,62.2,29.53,SE,124,1.0,1.0,93,0.00,,,0.12,Wunderground v.1.15,2013-05-31 03:55:00,
2013-05-30 23:05:00,64.1,62.0,29.53,SSE,166,1.0,3.0,93,0.00,,,0.12,Wunderground v.1.15,2013-05-31 04:05:00,
2013-05-30 23:10:00,64.0,61.9,29.52,ESE,110,1.0,1.0,93,0.00,,,0.12,Wunderground v.1.15,2013-05-31 04:10:00,
2013-05-30 23:15:00,63.9,61.8,29.52,SE,132,1.0,1.0,93,0.00,,,0.12,Wunderground v.1.15,2013-05-31 04:15:00,
2013-05-30 23:20:00,63.8,61.7,29.52,SSE,147,1.0,1.0,93,0.00,,,0.12,Wunderground v.1.15,2013-05-31 04:20:00,
2013-05-30 23:30:00,63.8,61.7,29.52,SE,141,1.0,1.0,93,0.00,,,0.12,Wunderground v.1.15,2013-05-31 04:30:00,
2013-05-30 23:40:00,63.7,61.6,29.51,SSE,159,1.0,1.0,93,0.00,,,0.12,Wunderground v.1.15,2013-05-31 04:40:00,
2013-05-30 23:50:00,63.6,61.5,29.52,SSE,148,1.0,1.0,93,0.00,,,0.12,Wunderground v.1.15,2013-05-31 04:50:00,
2013-05-30 23:55:00,63.6,61.8,29.53,South,172,1.0,7.0,94,3.84,,,0.19,Wunderground v.1.15,2013-05-31 04:55:00,